Norfolk NAS, Virginia
Current Conditions -  °F | °C
As of 7:59 PM on Saturday 22 Nov 2014 (Local Time) from KNGU Reporting Station
Few Clouds Few Clouds  
Wind Chill: 43°   Ceiling: Unl
Heat Index: 45°   Visibility: 10mi
Dew Point: 21°   Wind: 5mph
Humidity: 39%   Direction: 200°SSW
Pressure: 30.37"   Gusts: NA
Location:  36.93°N, 76.28°W
Report Text: KNGU 230059Z 20004KT 10SM FEW260 07/M06 A3037 RMK AO2 SLP284 T00721061
Loading
Personal Weather Stations






























Interactive Weather Map New forecast layout! Learn more

10-Day Weather Forecast

Advertisements
Track Severe Weather on mobile